sensor_id;sensor_type;location;lat;lon;timestamp;pressure;altitude;pressure_sealevel;temperature;humidity
21086;BME280;34247;50.064;19.970;2023-04-26T00:00:17;98648.25;;;10.02;75.95
21086;BME280;34247;50.064;19.970;2023-04-26T00:01:22;98648.16;;;10.03;75.46
21086;BME280;34247;50.064;19.970;2023-04-26T00:02:26;98642.59;;;10.06;75.27
21086;BME280;34247;50.064;19.970;2023-04-26T00:03:30;98658.03;;;10.12;75.05
21086;BME280;34247;50.064;19.970;2023-04-26T00:04:39;98658.28;;;10.09;75.60
21086;BME280;34247;50.064;19.970;2023-04-26T00:05:43;98662.38;;;10.13;75.07
21086;BME280;34247;50.064;19.970;2023-04-26T00:06:48;98666.25;;;10.09;74.75
21086;BME280;34247;50.064;19.970;2023-04-26T00:07:52;98652.25;;;10.07;75.24
21086;BME280;34247;50.064;19.970;2023-04-26T00:08:57;98661.78;;;10.10;74.74
21086;BME280;34247;50.064;19.970;2023-04-26T00:10:01;98657.06;;;10.13;74.88
21086;BME280;34247;50.064;19.970;2023-04-26T00:11:05;98658.78;;;10.14;74.74
21086;BME280;34247;50.064;19.970;2023-04-26T00:12:10;98658.03;;;10.12;74.95
21086;BME280;34247;50.064;19.970;2023-04-26T00:13:15;98661.06;;;10.19;74.38
21086;BME280;34247;50.064;19.970;2023-04-26T00:14:21;98663.22;;;10.14;74.30
21086;BME280;34247;50.064;19.970;2023-04-26T00:15:25;98662.28;;;10.15;74.76
21086;BME280;34247;50.064;19.970;2023-04-26T00:16:29;98663.59;;;10.20;74.60
21086;BME280;34247;50.064;19.970;2023-04-26T00:17:33;98666.78;;;10.26;73.99
21086;BME280;34247;50.064;19.970;2023-04-26T00:18:37;98673.78;;;10.27;74.02
21086;BME280;34247;50.064;19.970;2023-04-26T00:19:41;98672.72;;;10.29;73.82
21086;BME280;34247;50.064;19.970;2023-04-26T00:20:45;98670.78;;;10.31;73.58
21086;BME280;34247;50.064;19.970;2023-04-26T00:21:49;98672.47;;;10.32;73.43
21086;BME280;34247;50.064;19.970;2023-04-26T00:22:53;98670.78;;;10.31;73.52
21086;BME280;34247;50.064;19.970;2023-04-26T00:23:57;98670.28;;;10.26;73.59
21086;BME280;34247;50.064;19.970;2023-04-26T00:25:01;98667.50;;;10.28;73.62
21086;BME280;34247;50.064;19.970;2023-04-26T00:26:05;98668.25;;;10.30;73.53
21086;BME280;34247;50.064;19.970;2023-04-26T00:27:10;98677.28;;;10.27;73.19
21086;BME280;34247;50.064;19.970;2023-04-26T00:28:13;98671.13;;;10.27;72.94
21086;BME280;34247;50.064;19.970;2023-04-26T00:29:18;98676.44;;;10.27;73.07
21086;BME280;34247;50.064;19.970;2023-04-26T00:30:22;98681.75;;;10.27;72.43
21086;BME280;34247;50.064;19.970;2023-04-26T00:31:26;98677.53;;;10.24;72.74
21086;BME280;34247;50.064;19.970;2023-04-26T00:32:30;98673.78;;;10.27;73.04
21086;BME280;34247;50.064;19.970;2023-04-26T00:33:34;98676.69;;;10.24;72.97
21086;BME280;34247;50.064;19.970;2023-04-26T00:34:38;98674.75;;;10.26;72.49
21086;BME280;34247;50.064;19.970;2023-04-26T00:35:42;98675.06;;;10.21;72.45
21086;BME280;34247;50.064;19.970;2023-04-26T00:36:46;98675.19;;;10.19;72.36
21086;BME280;34247;50.064;19.970;2023-04-26T00:37:50;98673.75;;;10.15;72.05
21086;BME280;34247;50.064;19.970;2023-04-26T00:38:54;98678.06;;;10.16;72.24
21086;BME280;34247;50.064;19.970;2023-04-26T00:39:58;98670.84;;;10.18;72.15
21086;BME280;34247;50.064;19.970;2023-04-26T00:41:05;98671.94;;;10.16;71.54
21086;BME280;34247;50.064;19.970;2023-04-26T00:42:10;98673.22;;;10.10;70.66
21086;BME280;34247;50.064;19.970;2023-04-26T00:43:14;98673.47;;;10.07;70.37
21086;BME280;34247;50.064;19.970;2023-04-26T00:44:19;98674.16;;;9.98;69.80
21086;BME280;34247;50.064;19.970;2023-04-26T00:45:24;98677.56;;;10.00;70.29
21086;BME280;34247;50.064;19.970;2023-04-26T00:46:28;98671.88;;;9.93;70.57
21086;BME280;34247;50.064;19.970;2023-04-26T00:47:34;98675.25;;;9.95;70.89
21086;BME280;34247;50.064;19.970;2023-04-26T00:48:38;98669.59;;;10.00;70.17
21086;BME280;34247;50.064;19.970;2023-04-26T00:49:42;98673.19;;;9.99;69.96
21086;BME280;34247;50.064;19.970;2023-04-26T00:50:47;98669.47;;;10.02;69.81
21086;BME280;34247;50.064;19.970;2023-04-26T00:51:52;98681.78;;;10.03;69.25
21086;BME280;34247;50.064;19.970;2023-04-26T00:53:01;98674.59;;;9.92;69.25
21086;BME280;34247;50.064;19.970;2023-04-26T00:54:08;98679.47;;;9.98;69.30
21086;BME280;34247;50.064;19.970;2023-04-26T00:55:14;98676.34;;;10.04;69.20
21086;BME280;34247;50.064;19.970;2023-04-26T00:56:20;98672.63;;;10.07;69.08
21086;BME280;34247;50.064;19.970;2023-04-26T00:57:25;98677.81;;;10.08;68.56
21086;BME280;34247;50.064;19.970;2023-04-26T00:58:29;98677.06;;;10.06;68.57
21086;BME280;34247;50.064;19.970;2023-04-26T00:59:33;98671.88;;;10.05;68.03
21086;BME280;34247;50.064;19.970;2023-04-26T01:00:38;98675.38;;;10.05;67.46
21086;BME280;34247;50.064;19.970;2023-04-26T01:01:42;98677.31;;;10.03;67.41
21086;BME280;34247;50.064;19.970;2023-04-26T01:02:46;98680.09;;;10.02;67.78
21086;BME280;34247;50.064;19.970;2023-04-26T01:03:50;98674.91;;;10.00;67.38
21086;BME280;34247;50.064;19.970;2023-04-26T01:04:55;98679.84;;;10.05;67.22
21086;BME280;34247;50.064;19.970;2023-04-26T01:05:59;98683.13;;;10.08;66.75
21086;BME280;34247;50.064;19.970;2023-04-26T01:07:03;98683.84;;;10.10;66.79
21086;BME280;34247;50.064;19.970;2023-04-26T01:08:10;98685.53;;;10.11;66.85
21086;BME280;34247;50.064;19.970;2023-04-26T01:09:17;98682.16;;;10.09;66.26
21086;BME280;34247;50.064;19.970;2023-04-26T01:10:22;98690.44;;;10.05;65.80
21086;BME280;34247;50.064;19.970;2023-04-26T01:11:26;98690.06;;;9.98;65.47
21086;BME280;34247;50.064;19.970;2023-04-26T01:12:31;98687.38;;;9.87;65.92
21086;BME280;34247;50.064;19.970;2023-04-26T01:13:37;98683.78;;;9.88;66.10
21086;BME280;34247;50.064;19.970;2023-04-26T01:14:41;98695.81;;;9.92;66.00
21086;BME280;34247;50.064;19.970;2023-04-26T01:15:47;98699.88;;;9.85;66.18
21086;BME280;34247;50.064;19.970;2023-04-26T01:16:51;98692.28;;;9.80;66.26
21086;BME280;34247;50.064;19.970;2023-04-26T01:17:56;98696.63;;;9.81;66.11
21086;BME280;34247;50.064;19.970;2023-04-26T01:19:10;98695.56;;;9.84;65.51
21086;BME280;34247;50.064;19.970;2023-04-26T01:20:18;98688.44;;;9.84;65.57
21086;BME280;34247;50.064;19.970;2023-04-26T01:21:23;98703.75;;;9.81;64.93
21086;BME280;34247;50.064;19.970;2023-04-26T01:22:33;98695.72;;;9.70;64.14
21086;BME280;34247;50.064;19.970;2023-04-26T01:23:40;98694.47;;;9.62;64.69
21086;BME280;34247;50.064;19.970;2023-04-26T01:24:50;98698.84;;;9.63;63.98
21086;BME280;34247;50.064;19.970;2023-04-26T01:25:56;98702.16;;;9.54;64.54
21086;BME280;34247;50.064;19.970;2023-04-26T01:27:01;98696.41;;;9.60;64.97
21086;BME280;34247;50.064;19.970;2023-04-26T01:28:09;98704.06;;;9.52;64.41
21086;BME280;34247;50.064;19.970;2023-04-26T01:29:19;98707.69;;;9.51;64.09
21086;BME280;34247;50.064;19.970;2023-04-26T01:30:24;98709.38;;;9.52;64.70
21086;BME280;34247;50.064;19.970;2023-04-26T01:31:28;98709.78;;;9.59;64.66
21086;BME280;34247;50.064;19.970;2023-04-26T01:32:32;98709.66;;;9.60;64.85
21086;BME280;34247;50.064;19.970;2023-04-26T01:33:40;98712.81;;;9.65;64.69
21086;BME280;34247;50.064;19.970;2023-04-26T01:34:45;98711.53;;;9.71;64.34
21086;BME280;34247;50.064;19.970;2023-04-26T01:35:49;98706.56;;;9.66;64.06
21086;BME280;34247;50.064;19.970;2023-04-26T01:36:53;98716.44;;;9.64;64.29
21086;BME280;34247;50.064;19.970;2023-04-26T01:37:56;98713.88;;;9.63;64.12
21086;BME280;34247;50.064;19.970;2023-04-26T01:39:00;98720.38;;;9.59;63.64
21086;BME280;34247;50.064;19.970;2023-04-26T01:40:05;98724.31;;;9.53;63.73
21086;BME280;34247;50.064;19.970;2023-04-26T01:41:12;98722.50;;;9.54;63.91
21086;BME280;34247;50.064;19.970;2023-04-26T01:42:16;98713.09;;;9.50;63.91
21086;BME280;34247;50.064;19.970;2023-04-26T01:43:21;98718.50;;;9.48;63.40
21086;BME280;34247;50.064;19.970;2023-04-26T01:44:25;98721.25;;;9.47;63.09
21086;BME280;34247;50.064;19.970;2023-04-26T01:45:29;98729.75;;;9.39;62.96
21086;BME280;34247;50.064;19.970;2023-04-26T01:46:33;98723.09;;;9.33;63.15
21086;BME280;34247;50.064;19.970;2023-04-26T01:47:37;98726.50;;;9.35;62.80
21086;BME280;34247;50.064;19.970;2023-04-26T01:48:41;98725.97;;;9.30;63.04
21086;BME280;34247;50.064;19.970;2023-04-26T01:49:45;98726.53;;;9.23;62.61
21086;BME280;34247;50.064;19.970;2023-04-26T01:50:49;98727.59;;;9.20;62.50
21086;BME280;34247;50.064;19.970;2023-04-26T01:51:53;98730.25;;;9.20;62.43
21086;BME280;34247;50.064;19.970;2023-04-26T01:52:57;98740.53;;;9.12;62.65
21086;BME280;34247;50.064;19.970;2023-04-26T01:54:01;98731.44;;;9.03;62.57
21086;BME280;34247;50.064;19.970;2023-04-26T01:55:09;98729.53;;;9.05;62.77
21086;BME280;34247;50.064;19.970;2023-04-26T01:56:13;98733.75;;;9.08;62.25
21086;BME280;34247;50.064;19.970;2023-04-26T01:57:16;98744.47;;;9.06;61.81
21086;BME280;34247;50.064;19.970;2023-04-26T01:58:21;98729.53;;;9.05;62.03
21086;BME280;34247;50.064;19.970;2023-04-26T01:59:24;98734.72;;;9.07;61.67
21086;BME280;34247;50.064;19.970;2023-04-26T02:00:29;98734.50;;;9.10;61.40
21086;BME280;34247;50.064;19.970;2023-04-26T02:01:37;98738.34;;;9.06;61.38
21086;BME280;34247;50.064;19.970;2023-04-26T02:02:41;98733.66;;;9.09;61.52
21086;BME280;34247;50.064;19.970;2023-04-26T02:03:45;98733.66;;;9.09;61.05
21086;BME280;34247;50.064;19.970;2023-04-26T02:04:48;98733.66;;;8.97;60.88
21086;BME280;34247;50.064;19.970;2023-04-26T02:05:53;98729.31;;;8.96;60.70
21086;BME280;34247;50.064;19.970;2023-04-26T02:06:57;98738.13;;;8.96;61.37
21086;BME280;34247;50.064;19.970;2023-04-26T02:08:00;98737.91;;;8.99;61.44
21086;BME280;34247;50.064;19.970;2023-04-26T02:09:04;98731.78;;;8.99;61.26
21086;BME280;34247;50.064;19.970;2023-04-26T02:10:10;98737.69;;;9.02;61.24
21086;BME280;34247;50.064;19.970;2023-04-26T02:11:15;98740.13;;;9.05;61.41
21086;BME280;34247;50.064;19.970;2023-04-26T02:12:19;98740.03;;;9.07;61.09
21086;BME280;34247;50.064;19.970;2023-04-26T02:13:24;98742.03;;;9.03;61.48
21086;BME280;34247;50.064;19.970;2023-04-26T02:14:28;98737.25;;;9.08;61.38
21086;BME280;34247;50.064;19.970;2023-04-26T02:15:31;98731.22;;;9.06;61.17
21086;BME280;34247;50.064;19.970;2023-04-26T02:16:38;98738.34;;;9.06;61.28
21086;BME280;34247;50.064;19.970;2023-04-26T02:17:42;98740.88;;;9.07;61.58
21086;BME280;34247;50.064;19.970;2023-04-26T02:18:47;98742.66;;;9.07;61.46
21086;BME280;34247;50.064;19.970;2023-04-26T02:19:53;98735.25;;;8.99;61.75
21086;BME280;34247;50.064;19.970;2023-04-26T02:20:56;98746.59;;;9.01;61.69
21086;BME280;34247;50.064;19.970;2023-04-26T02:22:00;98740.56;;;8.99;61.53
21086;BME280;34247;50.064;19.970;2023-04-26T02:23:05;98746.06;;;8.96;61.95
21086;BME280;34247;50.064;19.970;2023-04-26T02:24:11;98747.97;;;8.94;61.92
21086;BME280;34247;50.064;19.970;2023-04-26T02:25:15;98746.41;;;8.92;62.12
21086;BME280;34247;50.064;19.970;2023-04-26T02:26:19;98746.69;;;8.87;62.29
21086;BME280;34247;50.064;19.970;2023-04-26T02:27:24;98746.59;;;8.89;62.11
21086;BME280;34247;50.064;19.970;2023-04-26T02:28:27;98749.97;;;8.91;62.05
21086;BME280;34247;50.064;19.970;2023-04-26T02:29:31;98749.97;;;8.91;62.32
21086;BME280;34247;50.064;19.970;2023-04-26T02:30:47;98746.41;;;8.92;62.07
21086;BME280;34247;50.064;19.970;2023-04-26T02:31:51;98750.09;;;8.89;61.94
21086;BME280;34247;50.064;19.970;2023-04-26T02:32:55;98750.19;;;8.88;62.53
21086;BME280;34247;50.064;19.970;2023-04-26T02:33:59;98752.97;;;8.86;62.26
21086;BME280;34247;50.064;19.970;2023-04-26T02:35:03;98753.81;;;8.87;62.64
21086;BME280;34247;50.064;19.970;2023-04-26T02:36:08;98754.94;;;8.82;62.51
21086;BME280;34247;50.064;19.970;2023-04-26T02:37:12;98749.25;;;8.76;63.15
21086;BME280;34247;50.064;19.970;2023-04-26T02:38:16;98749.25;;;8.76;63.02
21086;BME280;34247;50.064;19.970;2023-04-26T02:39:20;98750.19;;;8.75;63.00
21086;BME280;34247;50.064;19.970;2023-04-26T02:40:24;98749.34;;;8.74;62.85
21086;BME280;34247;50.064;19.970;2023-04-26T02:41:30;98746.59;;;8.76;63.15
21086;BME280;34247;50.064;19.970;2023-04-26T02:42:35;98750.84;;;8.78;62.83
21086;BME280;34247;50.064;19.970;2023-04-26T02:43:39;98749.03;;;8.79;62.85
21086;BME280;34247;50.064;19.970;2023-04-26T02:44:44;98746.41;;;8.79;62.67
21086;BME280;34247;50.064;19.970;2023-04-26T02:45:48;98744.72;;;8.78;62.83
21086;BME280;34247;50.064;19.970;2023-04-26T02:46:51;98752.53;;;8.79;62.90
21086;BME280;34247;50.064;19.970;2023-04-26T02:47:55;98748.72;;;8.71;62.96
21086;BME280;34247;50.064;19.970;2023-04-26T02:48:59;98747.78;;;8.72;62.96
21086;BME280;34247;50.064;19.970;2023-04-26T02:50:08;98746.94;;;8.71;63.03
21086;BME280;34247;50.064;19.970;2023-04-26T02:51:12;98750.59;;;8.69;63.12
21086;BME280;34247;50.064;19.970;2023-04-26T02:52:16;98749.03;;;8.66;63.33
21086;BME280;34247;50.064;19.970;2023-04-26T02:53:20;98741.41;;;8.62;63.36
21086;BME280;34247;50.064;19.970;2023-04-26T02:54:24;98747.66;;;8.61;63.60
21086;BME280;34247;50.064;19.970;2023-04-26T02:55:28;98756.44;;;8.61;64.10
21086;BME280;34247;50.064;19.970;2023-04-26T02:56:32;98752.84;;;8.49;64.03
21086;BME280;34247;50.064;19.970;2023-04-26T02:57:36;98759.59;;;8.53;64.38
21086;BME280;34247;50.064;19.970;2023-04-26T02:58:40;98753.81;;;8.48;64.52
21086;BME280;34247;50.064;19.970;2023-04-26T02:59:45;98760.38;;;8.55;64.18
21086;BME280;34247;50.064;19.970;2023-04-26T03:00:48;98756.00;;;8.54;64.19
21086;BME280;34247;50.064;19.970;2023-04-26T03:01:52;98756.97;;;8.53;64.11
21086;BME280;34247;50.064;19.970;2023-04-26T03:02:56;98757.06;;;8.52;64.25
21086;BME280;34247;50.064;19.970;2023-04-26T03:04:01;98766.19;;;8.48;64.65
21086;BME280;34247;50.064;19.970;2023-04-26T03:05:08;98759.69;;;8.39;64.53
21086;BME280;34247;50.064;19.970;2023-04-26T03:06:16;98757.88;;;8.40;65.15
21086;BME280;34247;50.064;19.970;2023-04-26T03:07:19;98756.84;;;8.42;64.82
21086;BME280;34247;50.064;19.970;2023-04-26T03:08:23;98757.59;;;8.44;65.04
21086;BME280;34247;50.064;19.970;2023-04-26T03:09:27;98760.97;;;8.46;64.67
21086;BME280;34247;50.064;19.970;2023-04-26T03:10:32;98758.44;;;8.45;64.75
21086;BME280;34247;50.064;19.970;2023-04-26T03:11:35;98755.06;;;8.43;65.18
21086;BME280;34247;50.064;19.970;2023-04-26T03:12:39;98766.88;;;8.37;65.41
21086;BME280;34247;50.064;19.970;2023-04-26T03:13:44;98767.53;;;8.41;65.47
21086;BME280;34247;50.064;19.970;2023-04-26T03:14:48;98763.09;;;8.41;65.56
21086;BME280;34247;50.064;19.970;2023-04-26T03:15:52;98767.03;;;8.48;65.33
21086;BME280;34247;50.064;19.970;2023-04-26T03:16:56;98758.13;;;8.49;65.05
21086;BME280;34247;50.064;19.970;2023-04-26T03:18:00;98767.66;;;8.52;65.06
21086;BME280;34247;50.064;19.970;2023-04-26T03:19:04;98768.19;;;8.57;65.06
21086;BME280;34247;50.064;19.970;2023-04-26T03:20:09;98770.00;;;8.56;65.02
21086;BME280;34247;50.064;19.970;2023-04-26T03:21:14;98773.59;;;8.55;64.90
21086;BME280;34247;50.064;19.970;2023-04-26T03:22:18;98768.09;;;8.59;65.09
21086;BME280;34247;50.064;19.970;2023-04-26T03:23:22;98767.53;;;8.53;65.52
21086;BME280;34247;50.064;19.970;2023-04-26T03:24:27;98773.28;;;8.47;65.69
21086;BME280;34247;50.064;19.970;2023-04-26T03:25:32;98774.75;;;8.51;65.50
21086;BME280;34247;50.064;19.970;2023-04-26T03:26:37;98777.06;;;8.43;66.09
21086;BME280;34247;50.064;19.970;2023-04-26T03:27:41;98775.16;;;8.45;65.82
21086;BME280;34247;50.064;19.970;2023-04-26T03:28:45;98779.59;;;8.45;66.24
21086;BME280;34247;50.064;19.970;2023-04-26T03:29:49;98782.47;;;8.42;66.22
21086;BME280;34247;50.064;19.970;2023-04-26T03:30:53;98781.28;;;8.46;65.91
21086;BME280;34247;50.064;19.970;2023-04-26T03:31:57;98789.84;;;8.37;67.18
21086;BME280;34247;50.064;19.970;2023-04-26T03:33:00;98787.19;;;8.37;66.75
21086;BME280;34247;50.064;19.970;2023-04-26T03:34:04;98785.28;;;8.39;67.12
21086;BME280;34247;50.064;19.970;2023-04-26T03:35:09;98781.91;;;8.37;66.96
21086;BME280;34247;50.064;19.970;2023-04-26T03:36:13;98787.63;;;8.43;66.45
21086;BME280;34247;50.064;19.970;2023-04-26T03:37:17;98784.88;;;8.45;66.65
21086;BME280;34247;50.064;19.970;2023-04-26T03:38:21;98778.75;;;8.44;66.73
21086;BME280;34247;50.064;19.970;2023-04-26T03:39:25;98786.91;;;8.41;67.25
21086;BME280;34247;50.064;19.970;2023-04-26T03:40:29;98794.06;;;8.39;67.42
21086;BME280;34247;50.064;19.970;2023-04-26T03:41:33;98792.59;;;8.35;67.86
21086;BME280;34247;50.064;19.970;2023-04-26T03:42:39;98799.66;;;8.35;67.77
21086;BME280;34247;50.064;19.970;2023-04-26T03:43:43;98796.09;;;8.36;67.75
21086;BME280;34247;50.064;19.970;2023-04-26T03:44:46;98797.13;;;8.33;67.54
21086;BME280;34247;50.064;19.970;2023-04-26T03:45:51;98796.56;;;8.28;67.92
21086;BME280;34247;50.064;19.970;2023-04-26T03:46:55;98805.25;;;8.30;68.20
21086;BME280;34247;50.064;19.970;2023-04-26T03:47:59;98811.25;;;8.19;68.61
21086;BME280;34247;50.064;19.970;2023-04-26T03:49:03;98810.63;;;8.28;68.21
21086;BME280;34247;50.064;19.970;2023-04-26T03:50:09;98805.34;;;8.28;67.95
21086;BME280;34247;50.064;19.970;2023-04-26T03:51:13;98804.19;;;8.33;68.09
21086;BME280;34247;50.064;19.970;2023-04-26T03:52:17;98807.69;;;8.33;68.40
21086;BME280;34247;50.064;19.970;2023-04-26T03:53:22;98805.97;;;8.32;68.08
21086;BME280;34247;50.064;19.970;2023-04-26T03:54:26;98805.81;;;8.35;67.38
21086;BME280;34247;50.064;19.970;2023-04-26T03:55:30;98810.03;;;8.38;67.45
21086;BME280;34247;50.064;19.970;2023-04-26T03:56:34;98810.03;;;8.38;67.58
21086;BME280;34247;50.064;19.970;2023-04-26T03:57:39;98812.59;;;8.39;67.54
21086;BME280;34247;50.064;19.970;2023-04-26T03:58:43;98811.75;;;8.39;67.24
21086;BME280;34247;50.064;19.970;2023-04-26T03:59:47;98814.50;;;8.37;67.40
21086;BME280;34247;50.064;19.970;2023-04-26T04:00:51;98814.50;;;8.37;67.48
21086;BME280;34247;50.064;19.970;2023-04-26T04:01:54;98813.00;;;8.33;67.77
21086;BME280;34247;50.064;19.970;2023-04-26T04:02:58;98815.72;;;8.32;67.90
21086;BME280;34247;50.064;19.970;2023-04-26T04:04:03;98824.69;;;8.29;67.79
21086;BME280;34247;50.064;19.970;2023-04-26T04:05:08;98821.31;;;8.27;67.91
21086;BME280;34247;50.064;19.970;2023-04-26T04:06:12;98829.09;;;8.16;68.74
21086;BME280;34247;50.064;19.970;2023-04-26T04:07:15;98829.72;;;8.07;68.76
21086;BME280;34247;50.064;19.970;2023-04-26T04:08:21;98834.88;;;8.08;69.11
21086;BME280;34247;50.064;19.970;2023-04-26T04:09:25;98827.69;;;8.10;68.94
21086;BME280;34247;50.064;19.970;2023-04-26T04:10:29;98828.25;;;8.15;68.88
21086;BME280;34247;50.064;19.970;2023-04-26T04:11:33;98833.53;;;8.15;68.69
21086;BME280;34247;50.064;19.970;2023-04-26T04:12:37;98834.50;;;8.14;68.19
21086;BME280;34247;50.064;19.970;2023-04-26T04:13:41;98829.00;;;8.17;68.44
21086;BME280;34247;50.064;19.970;2023-04-26T04:14:45;98836.41;;;8.12;69.17
21086;BME280;34247;50.064;19.970;2023-04-26T04:15:50;98842.81;;;8.08;69.49
21086;BME280;34247;50.064;19.970;2023-04-26T04:16:54;98839.88;;;8.13;69.00
21086;BME280;34247;50.064;19.970;2023-04-26T04:17:58;98837.25;;;8.13;68.84
21086;BME280;34247;50.064;19.970;2023-04-26T04:19:02;98838.88;;;8.01;68.96
21086;BME280;34247;50.064;19.970;2023-04-26T04:20:07;98836.06;;;8.04;68.84
21086;BME280;34247;50.064;19.970;2023-04-26T04:21:11;98844.66;;;7.93;69.09
21086;BME280;34247;50.064;19.970;2023-04-26T04:22:15;98839.88;;;7.86;69.86
21086;BME280;34247;50.064;19.970;2023-04-26T04:23:19;98843.25;;;7.88;69.26
21086;BME280;34247;50.064;19.970;2023-04-26T04:24:23;98845.50;;;7.94;68.90
21086;BME280;34247;50.064;19.970;2023-04-26T04:25:28;98840.88;;;7.97;68.65
21086;BME280;34247;50.064;19.970;2023-04-26T04:26:32;98840.22;;;7.94;69.40
21086;BME280;34247;50.064;19.970;2023-04-26T04:27:36;98840.03;;;7.97;68.82
21086;BME280;34247;50.064;19.970;2023-04-26T04:28:41;98850.66;;;7.83;68.99
21086;BME280;34247;50.064;19.970;2023-04-26T04:29:44;98852.78;;;7.90;68.59
21086;BME280;34247;50.064;19.970;2023-04-26T04:30:49;98856.56;;;7.86;68.77
21086;BME280;34247;50.064;19.970;2023-04-26T04:31:54;98856.78;;;7.83;68.53
21086;BME280;34247;50.064;19.970;2023-04-26T04:32:58;98850.16;;;7.90;68.21
21086;BME280;34247;50.064;19.970;2023-04-26T04:34:02;98850.91;;;7.92;68.48
21086;BME280;34247;50.064;19.970;2023-04-26T04:35:06;98852.97;;;7.87;68.18
21086;BME280;34247;50.064;19.970;2023-04-26T04:36:12;98859.88;;;7.90;68.63
21086;BME280;34247;50.064;19.970;2023-04-26T04:37:16;98866.19;;;7.87;68.34
21086;BME280;34247;50.064;19.970;2023-04-26T04:38:20;98858.47;;;7.84;68.29
21086;BME280;34247;50.064;19.970;2023-04-26T04:39:24;98860.38;;;7.82;68.63
21086;BME280;34247;50.064;19.970;2023-04-26T04:40:29;98858.38;;;7.86;68.49
21086;BME280;34247;50.064;19.970;2023-04-26T04:41:34;98870.63;;;7.87;68.50
21086;BME280;34247;50.064;19.970;2023-04-26T04:42:38;98864.97;;;7.79;68.35
21086;BME280;34247;50.064;19.970;2023-04-26T04:43:42;98863.75;;;7.84;68.07
21086;BME280;34247;50.064;19.970;2023-04-26T04:44:46;98866.50;;;7.83;68.17
21086;BME280;34247;50.064;19.970;2023-04-26T04:45:50;98871.84;;;7.81;68.33
21086;BME280;34247;50.064;19.970;2023-04-26T04:46:54;98873.66;;;7.81;68.18
21086;BME280;34247;50.064;19.970;2023-04-26T04:47:59;98873.00;;;7.77;68.13
21086;BME280;34247;50.064;19.970;2023-04-26T04:49:03;98870.94;;;7.82;68.16
21086;BME280;34247;50.064;19.970;2023-04-26T04:50:08;98871.56;;;7.86;68.05
21086;BME280;34247;50.064;19.970;2023-04-26T04:51:12;98874.13;;;7.87;68.13
21086;BME280;34247;50.064;19.970;2023-04-26T04:52:16;98868.19;;;7.84;68.16
21086;BME280;34247;50.064;19.970;2023-04-26T04:53:21;98880.19;;;7.75;68.36
21086;BME280;34247;50.064;19.970;2023-04-26T04:54:25;98873.97;;;7.76;68.14
21086;BME280;34247;50.064;19.970;2023-04-26T04:55:29;98877.94;;;7.69;68.04
21086;BME280;34247;50.064;19.970;2023-04-26T04:56:33;98885.00;;;7.68;68.10
21086;BME280;34247;50.064;19.970;2023-04-26T04:57:37;98878.47;;;7.74;67.89
21086;BME280;34247;50.064;19.970;2023-04-26T04:58:44;98877.72;;;7.72;68.35
21086;BME280;34247;50.064;19.970;2023-04-26T04:59:48;98881.97;;;7.74;68.09
21086;BME280;34247;50.064;19.970;2023-04-26T05:00:52;98889.59;;;7.79;67.82
21086;BME280;34247;50.064;19.970;2023-04-26T05:01:58;98886.59;;;7.85;67.55
21086;BME280;34247;50.064;19.970;2023-04-26T05:03:02;98877.69;;;7.86;67.88
21086;BME280;34247;50.064;19.970;2023-04-26T05:04:09;98873.25;;;7.87;67.33
21086;BME280;34247;50.064;19.970;2023-04-26T05:05:13;98887.63;;;7.83;67.43
21086;BME280;34247;50.064;19.970;2023-04-26T05:06:18;98885.06;;;7.81;67.67
21086;BME280;34247;50.064;19.970;2023-04-26T05:07:22;98889.69;;;7.92;67.15
21086;BME280;34247;50.064;19.970;2023-04-26T05:08:27;98886.09;;;7.93;67.11
21086;BME280;34247;50.064;19.970;2023-04-26T05:09:31;98885.13;;;7.94;66.23
21086;BME280;34247;50.064;19.970;2023-04-26T05:10:35;98890.06;;;7.86;66.15
21086;BME280;34247;50.064;19.970;2023-04-26T05:11:39;98889.34;;;7.84;66.20
21086;BME280;34247;50.064;19.970;2023-04-26T05:12:42;98883.72;;;7.88;66.22
21086;BME280;34247;50.064;19.970;2023-04-26T05:13:47;98889.38;;;7.96;65.98
21086;BME280;34247;50.064;19.970;2023-04-26T05:14:55;98890.41;;;8.08;65.80
21086;BME280;34247;50.064;19.970;2023-04-26T05:15:58;98888.94;;;8.17;65.55
21086;BME280;34247;50.064;19.970;2023-04-26T05:17:02;98885.50;;;8.29;65.42
21086;BME280;34247;50.064;19.970;2023-04-26T05:18:10;98899.47;;;8.45;65.24
21086;BME280;34247;50.064;19.970;2023-04-26T05:19:14;98894.25;;;8.71;64.55
21086;BME280;34247;50.064;19.970;2023-04-26T05:20:19;98883.91;;;8.93;63.72
21086;BME280;34247;50.064;19.970;2023-04-26T05:21:23;98891.03;;;9.18;62.88
21086;BME280;34247;50.064;19.970;2023-04-26T05:22:26;98884.25;;;9.39;61.94
21086;BME280;34247;50.064;19.970;2023-04-26T05:23:33;98897.47;;;9.65;61.05
21086;BME280;34247;50.064;19.970;2023-04-26T05:24:37;98886.84;;;9.78;60.37
21086;BME280;34247;50.064;19.970;2023-04-26T05:25:41;98891.06;;;9.93;60.45
21086;BME280;34247;50.064;19.970;2023-04-26T05:26:46;98904.47;;;10.15;58.62
21086;BME280;34247;50.064;19.970;2023-04-26T05:27:50;98896.72;;;10.12;58.21
21086;BME280;34247;50.064;19.970;2023-04-26T05:28:54;98900.97;;;10.15;57.35
21086;BME280;34247;50.064;19.970;2023-04-26T05:29:59;98891.53;;;10.24;58.14
21086;BME280;34247;50.064;19.970;2023-04-26T05:31:03;98900.03;;;10.40;56.91
21086;BME280;34247;50.064;19.970;2023-04-26T05:32:13;98898.56;;;10.60;56.10
21086;BME280;34247;50.064;19.970;2023-04-26T05:33:17;98884.41;;;10.83;56.53
21086;BME280;34247;50.064;19.970;2023-04-26T05:34:21;98890.50;;;11.08;55.90
21086;BME280;34247;50.064;19.970;2023-04-26T05:35:25;98893.69;;;11.24;54.91
21086;BME280;34247;50.064;19.970;2023-04-26T05:36:29;98890.19;;;11.35;54.39
21086;BME280;34247;50.064;19.970;2023-04-26T05:37:33;98897.56;;;11.42;53.62
21086;BME280;34247;50.064;19.970;2023-04-26T05:38:36;98902.66;;;11.56;53.55
21086;BME280;34247;50.064;19.970;2023-04-26T05:39:40;98896.03;;;11.62;53.02
21086;BME280;34247;50.064;19.970;2023-04-26T05:40:44;98905.47;;;11.66;52.83